Time;durP1;ratioP1;P1;durP2;ratioP2;P2;SDS_P1;SDS_P2;PMS_P1;PMS_P2;Temp;Humidity;BMP_temperature;BMP_pressure;BME280_temperature;BME280_humidity;BME280_pressure;Samples;Min_cycle;Max_cycle;Signal;HPM_P1;HPM_P2
2024/03/19 00:01:41;;;;;;;89.85;16.38;;;;;;;;;;5068360;28;20127;-33
2024/03/19 00:04:08;;;;;;;73.25;15.23;;;;;;;;;;5065462;28;20025;-33
2024/03/19 00:06:35;;;;;;;86.95;14.88;;;;;;;;;;5073584;28;20020;-34
2024/03/19 00:09:07;;;;;;;80.20;14.05;;;;;;;;;;5070744;28;20037;-33
2024/03/19 00:11:34;;;;;;;80.28;13.63;;;;;;;;;;5071505;28;20040;-33
2024/03/19 00:14:02;;;;;;;81.60;14.65;;;;;;;;;;5060424;28;20111;-35
2024/03/19 00:16:29;;;;;;;75.93;16.02;;;;;;;;;;5071548;28;20109;-35
2024/03/19 00:18:56;;;;;;;79.38;15.02;;;;;;;;;;5073729;28;20036;-35
2024/03/19 00:21:24;;;;;;;73.10;14.90;;;;;;;;;;5061842;28;20032;-33
2024/03/19 00:23:52;;;;;;;78.10;15.77;;;;;;;;;;5070137;28;20036;-34
2024/03/19 00:26:19;;;;;;;67.85;15.23;;;;;;;;;;5058633;28;20728;-35
2024/03/19 00:28:46;;;;;;;74.43;15.07;;;;;;;;;;5064896;28;20502;-33
2024/03/19 00:31:14;;;;;;;83.18;15.50;;;;;;;;;;5065620;28;20029;-33
2024/03/19 00:33:41;;;;;;;87.43;17.20;;;;;;;;;;5066200;28;20043;-34
2024/03/19 00:36:11;;;;;;;98.57;19.00;;;;;;;;;;5073000;28;20037;-34
2024/03/19 00:38:38;;;;;;;89.45;19.40;;;;;;;;;;5068300;28;20032;-33
2024/03/19 00:41:06;;;;;;;86.93;20.77;;;;;;;;;;5072723;28;20108;-35
2024/03/19 00:43:33;;;;;;;110.78;24.30;;;;;;;;;;5067397;28;20033;-34
2024/03/19 00:45:59;;;;;;;110.45;22.23;;;;;;;;;;5062686;28;20044;-33
2024/03/19 00:48:37;;;;;;;92.53;23.13;;;;;;;;;;5073058;28;20029;-33
2024/03/19 00:51:04;;;;;;;101.93;23.20;;;;;;;;;;5072648;28;20036;-34
2024/03/19 00:53:31;;;;;;;107.18;24.35;;;;;;;;;;5059644;28;20032;-36
2024/03/19 00:55:58;;;;;;;106.97;25.13;;;;;;;;;;5018928;28;20057;-33
2024/03/19 00:58:24;;;;;;;112.65;24.65;;;;;;;;;;5020151;28;20044;-33
2024/03/19 01:00:52;;;;;;;112.97;25.45;;;;;;;;;;5027018;28;20037;-34
2024/03/19 01:03:20;;;;;;;112.63;26.10;;;;;;;;;;5027043;28;20120;-33
2024/03/19 01:05:48;;;;;;;105.40;24.05;;;;;;;;;;5020552;28;20045;-34
2024/03/19 01:08:15;;;;;;;96.63;23.88;;;;;;;;;;5032891;28;20030;-33
2024/03/19 01:10:42;;;;;;;98.20;22.38;;;;;;;;;;5033120;28;20032;-34
2024/03/19 01:13:09;;;;;;;108.50;23.73;;;;;;;;;;5030093;28;20030;-33
2024/03/19 01:15:37;;;;;;;108.05;23.75;;;;;;;;;;5025819;28;20036;-33
2024/03/19 01:18:05;;;;;;;90.80;20.13;;;;;;;;;;5025897;28;20042;-31
2024/03/19 01:20:32;;;;;;;87.72;20.08;;;;;;;;;;5025228;28;20030;-31
2024/03/19 01:22:59;;;;;;;77.97;19.20;;;;;;;;;;5027254;28;20073;-33
2024/03/19 01:25:26;;;;;;;88.80;19.95;;;;;;;;;;5017557;28;20038;-33
2024/03/19 01:27:53;;;;;;;81.13;19.85;;;;;;;;;;5022868;28;20025;-33
2024/03/19 01:30:21;;;;;;;89.38;20.17;;;;;;;;;;5028271;28;20396;-33
2024/03/19 01:32:48;;;;;;;82.63;19.05;;;;;;;;;;5031527;28;20110;-34
2024/03/19 01:35:15;;;;;;;80.07;19.75;;;;;;;;;;5031026;28;20059;-33
2024/03/19 01:37:42;;;;;;;80.97;19.70;;;;;;;;;;5031678;28;20032;-33
2024/03/19 01:40:09;;;;;;;86.22;20.25;;;;;;;;;;5031559;28;20498;-31
2024/03/19 01:42:36;;;;;;;72.97;17.55;;;;;;;;;;5031002;28;20353;-31
2024/03/19 01:45:11;;;;;;;69.78;17.70;;;;;;;;;;5030006;28;20083;-33
2024/03/19 01:47:38;;;;;;;67.35;17.50;;;;;;;;;;5030684;28;20488;-34
2024/03/19 01:50:08;;;;;;;67.60;15.88;;;;;;;;;;5030242;28;20120;-35
2024/03/19 01:52:45;;;;;;;57.88;16.40;;;;;;;;;;5028774;28;20037;-33
2024/03/19 01:55:13;;;;;;;72.10;17.60;;;;;;;;;;5030985;28;20182;-31
2024/03/19 01:57:40;;;;;;;64.57;17.23;;;;;;;;;;5030418;28;20029;-34
2024/03/19 02:00:08;;;;;;;62.92;16.00;;;;;;;;;;5029661;28;20087;-32
2024/03/19 02:02:39;;;;;;;68.30;16.85;;;;;;;;;;5028277;28;20036;-34
2024/03/19 02:05:07;;;;;;;65.80;16.90;;;;;;;;;;5030717;28;20044;-35
2024/03/19 02:07:35;;;;;;;73.80;17.48;;;;;;;;;;5031050;28;20029;-34
2024/03/19 02:10:02;;;;;;;65.03;16.77;;;;;;;;;;5030346;28;21551;-35
2024/03/19 02:12:29;;;;;;;53.80;14.82;;;;;;;;;;5028568;28;20116;-33
2024/03/19 02:14:56;;;;;;;63.85;15.98;;;;;;;;;;5028883;28;20099;-32
2024/03/19 02:17:24;;;;;;;58.42;15.65;;;;;;;;;;5029090;28;20061;-32
2024/03/19 02:19:51;;;;;;;55.55;15.25;;;;;;;;;;5030764;28;20517;-32
2024/03/19 02:22:19;;;;;;;53.05;14.25;;;;;;;;;;5030723;28;20033;-34
2024/03/19 02:24:46;;;;;;;54.50;14.43;;;;;;;;;;5030943;28;20483;-32
2024/03/19 02:27:13;;;;;;;57.65;15.38;;;;;;;;;;5028556;28;20068;-32
2024/03/19 02:29:43;;;;;;;51.55;14.60;;;;;;;;;;5030888;28;20045;-34
2024/03/19 02:32:10;;;;;;;58.33;14.38;;;;;;;;;;5030847;28;20040;-34
2024/03/19 02:34:37;;;;;;;58.53;14.75;;;;;;;;;;5030870;28;20044;-32
2024/03/19 02:37:04;;;;;;;52.97;14.40;;;;;;;;;;5031028;28;20502;-32
2024/03/19 02:39:31;;;;;;;47.17;13.77;;;;;;;;;;5030362;28;20112;-32
2024/03/19 02:41:59;;;;;;;40.38;12.95;;;;;;;;;;5030352;28;20384;-34
2024/03/19 02:44:26;;;;;;;51.83;13.52;;;;;;;;;;5030794;28;20040;-33
2024/03/19 02:46:53;;;;;;;50.42;12.65;;;;;;;;;;5031117;28;20690;-33
2024/03/19 02:49:20;;;;;;;51.50;13.35;;;;;;;;;;5013091;28;20124;-34
2024/03/19 02:51:47;;;;;;;44.25;11.73;;;;;;;;;;5030455;28;20388;-34
2024/03/19 02:54:14;;;;;;;52.85;13.95;;;;;;;;;;5030339;28;20049;-32
2024/03/19 02:56:41;;;;;;;45.42;12.82;;;;;;;;;;5030578;28;20509;-34
2024/03/19 02:59:08;;;;;;;43.20;12.07;;;;;;;;;;5027265;28;20491;-32
2024/03/19 03:01:35;;;;;;;45.97;12.27;;;;;;;;;;5031468;28;20025;-33
2024/03/19 03:04:02;;;;;;;42.85;12.18;;;;;;;;;;5044964;28;20047;-32
2024/03/19 03:06:29;;;;;;;44.60;12.38;;;;;;;;;;5051345;28;20035;-32
2024/03/19 03:08:56;;;;;;;41.35;12.15;;;;;;;;;;5051317;28;20483;-33
2024/03/19 03:11:23;;;;;;;39.25;11.98;;;;;;;;;;5051295;28;20032;-33
2024/03/19 03:13:50;;;;;;;37.15;11.23;;;;;;;;;;5051214;28;20032;-33
2024/03/19 03:16:17;;;;;;;39.00;11.05;;;;;;;;;;5051324;28;20035;-33
2024/03/19 03:18:44;;;;;;;40.10;12.15;;;;;;;;;;5051278;28;20037;-32
2024/03/19 03:21:11;;;;;;;35.83;10.77;;;;;;;;;;5051263;28;20028;-33
2024/03/19 03:23:39;;;;;;;36.00;11.23;;;;;;;;;;5051211;28;20032;-32
2024/03/19 03:26:06;;;;;;;38.95;11.23;;;;;;;;;;5051121;28;20391;-32
2024/03/19 03:28:34;;;;;;;35.13;10.10;;;;;;;;;;5051162;28;20128;-33
2024/03/19 03:31:02;;;;;;;36.17;10.68;;;;;;;;;;5051233;28;20414;-32
2024/03/19 03:33:31;;;;;;;34.95;10.80;;;;;;;;;;5051024;28;20040;-32
2024/03/19 03:35:58;;;;;;;32.50;10.95;;;;;;;;;;5044400;28;20060;-32
2024/03/19 03:38:25;;;;;;;34.03;10.07;;;;;;;;;;5050978;28;20036;-32
2024/03/19 03:40:56;;;;;;;38.47;10.50;;;;;;;;;;5051859;28;20100;-32
2024/03/19 03:43:23;;;;;;;33.75;10.35;;;;;;;;;;5054671;28;20120;-32
2024/03/19 03:45:50;;;;;;;33.25;9.90;;;;;;;;;;5054947;28;20401;-32
2024/03/19 03:48:17;;;;;;;33.90;10.02;;;;;;;;;;5054734;28;20475;-32
2024/03/19 03:50:44;;;;;;;36.35;10.70;;;;;;;;;;5054593;28;20029;-32
2024/03/19 03:53:11;;;;;;;34.45;10.93;;;;;;;;;;5054619;28;20124;-32
2024/03/19 03:55:38;;;;;;;32.13;9.35;;;;;;;;;;5054424;28;20055;-32
2024/03/19 03:58:06;;;;;;;24.80;8.65;;;;;;;;;;5054722;28;20032;-32
2024/03/19 04:00:34;;;;;;;31.27;9.40;;;;;;;;;;5054500;28;20044;-32
2024/03/19 04:03:02;;;;;;;29.45;8.48;;;;;;;;;;5054456;28;20124;-32
2024/03/19 04:05:29;;;;;;;26.58;8.88;;;;;;;;;;5054513;28;20040;-32
2024/03/19 04:07:56;;;;;;;29.35;9.13;;;;;;;;;;5054373;28;20018;-32
2024/03/19 04:10:23;;;;;;;36.70;8.65;;;;;;;;;;5054428;28;20503;-32
2024/03/19 04:12:49;;;;;;;30.92;8.50;;;;;;;;;;5054317;28;20029;-32
2024/03/19 04:15:16;;;;;;;26.27;8.20;;;;;;;;;;5054363;28;20092;-32
2024/03/19 04:17:43;;;;;;;31.48;9.45;;;;;;;;;;5054188;28;20056;-32
2024/03/19 04:20:11;;;;;;;26.27;8.73;;;;;;;;;;5054308;28;20028;-32
2024/03/19 04:22:38;;;;;;;26.35;8.35;;;;;;;;;;5054046;28;20029;-32
2024/03/19 04:25:07;;;;;;;25.42;8.20;;;;;;;;;;5036083;28;20162;-32
2024/03/19 04:27:34;;;;;;;24.13;8.00;;;;;;;;;;5054108;28;20024;-32
2024/03/19 04:30:01;;;;;;;24.77;8.25;;;;;;;;;;5054007;28;20044;-34
2024/03/19 04:32:28;;;;;;;29.05;8.43;;;;;;;;;;5054019;28;20021;-34
2024/03/19 04:34:55;;;;;;;24.00;8.90;;;;;;;;;;5053743;28;20025;-34
2024/03/19 04:37:22;;;;;;;22.00;7.57;;;;;;;;;;5054022;28;20025;-34
2024/03/19 04:39:49;;;;;;;25.48;8.35;;;;;;;;;;5053929;28;20052;-34
2024/03/19 04:42:17;;;;;;;36.05;8.57;;;;;;;;;;5053906;28;20033;-34
2024/03/19 04:44:44;;;;;;;22.40;8.07;;;;;;;;;;5053653;28;20078;-34
2024/03/19 04:47:12;;;;;;;22.70;7.70;;;;;;;;;;5053774;28;20032;-34
2024/03/19 04:49:39;;;;;;;27.67;8.27;;;;;;;;;;5053701;28;20025;-34
2024/03/19 04:52:06;;;;;;;27.45;8.45;;;;;;;;;;5053537;28;20021;-34
2024/03/19 04:54:33;;;;;;;23.60;8.05;;;;;;;;;;5053438;28;20498;-34
2024/03/19 04:57:00;;;;;;;21.15;7.60;;;;;;;;;;5053587;28;20025;-34
2024/03/19 04:59:27;;;;;;;19.95;7.90;;;;;;;;;;5053540;28;20029;-34
2024/03/19 05:01:54;;;;;;;32.10;8.68;;;;;;;;;;5053353;28;20032;-34
2024/03/19 05:04:21;;;;;;;25.38;7.97;;;;;;;;;;5053388;28;20055;-34
2024/03/19 05:06:48;;;;;;;26.17;8.05;;;;;;;;;;5052269;28;20498;-34
2024/03/19 05:09:15;;;;;;;25.05;7.97;;;;;;;;;;5053273;28;20017;-34
2024/03/19 05:11:42;;;;;;;24.20;7.70;;;;;;;;;;5053329;28;20037;-34
2024/03/19 05:14:09;;;;;;;27.55;8.15;;;;;;;;;;5053175;28;20083;-34
2024/03/19 05:16:36;;;;;;;24.77;8.07;;;;;;;;;;5053238;28;20017;-34
2024/03/19 05:19:03;;;;;;;22.83;6.85;;;;;;;;;;5053138;28;20104;-34
2024/03/19 05:21:30;;;;;;;22.08;8.50;;;;;;;;;;5053245;28;20857;-34
2024/03/19 05:23:57;;;;;;;23.08;8.07;;;;;;;;;;5053012;28;20025;-34
2024/03/19 05:26:24;;;;;;;29.33;8.93;;;;;;;;;;5052983;28;20025;-34
2024/03/19 05:28:51;;;;;;;20.55;7.85;;;;;;;;;;5051389;28;20033;-34
2024/03/19 05:31:21;;;;;;;25.40;8.07;;;;;;;;;;5052946;28;20033;-34
2024/03/19 05:33:52;;;;;;;21.40;7.30;;;;;;;;;;5052837;28;20139;-34
2024/03/19 05:36:19;;;;;;;23.80;8.25;;;;;;;;;;5052868;28;20070;-34
2024/03/19 05:38:46;;;;;;;22.05;7.07;;;;;;;;;;5052708;28;20089;-34
2024/03/19 05:41:14;;;;;;;23.17;8.05;;;;;;;;;;5052758;28;20390;-34
2024/03/19 05:43:42;;;;;;;19.20;7.38;;;;;;;;;;5052425;28;20487;-34
2024/03/19 05:46:10;;;;;;;18.58;7.47;;;;;;;;;;5052629;28;20029;-34
2024/03/19 05:48:37;;;;;;;23.98;7.72;;;;;;;;;;5052527;28;20782;-34
2024/03/19 05:51:07;;;;;;;21.88;7.75;;;;;;;;;;5052526;28;20021;-34
2024/03/19 05:53:38;;;;;;;22.25;7.55;;;;;;;;;;5052379;28;20021;-34
2024/03/19 05:56:05;;;;;;;20.70;7.60;;;;;;;;;;5052318;28;20053;-34
2024/03/19 05:58:32;;;;;;;22.58;7.70;;;;;;;;;;5052401;28;20100;-34
2024/03/19 06:01:01;;;;;;;21.75;7.45;;;;;;;;;;5046855;28;20044;-34
2024/03/19 06:03:28;;;;;;;21.88;7.07;;;;;;;;;;5031591;28;20022;-32
2024/03/19 06:05:58;;;;;;;17.42;7.07;;;;;;;;;;5032393;28;20353;-32
2024/03/19 06:08:27;;;;;;;19.30;6.78;;;;;;;;;;5032099;28;20484;-32
2024/03/19 06:10:54;;;;;;;21.85;7.35;;;;;;;;;;5030582;28;20427;-32
2024/03/19 06:13:21;;;;;;;22.27;7.07;;;;;;;;;;5039862;28;20398;-34
2024/03/19 06:15:48;;;;;;;22.17;7.85;;;;;;;;;;5052068;28;20032;-34
2024/03/19 06:18:15;;;;;;;17.92;6.70;;;;;;;;;;5052031;28;20029;-34
2024/03/19 06:20:43;;;;;;;16.88;6.70;;;;;;;;;;5051926;28;20032;-32
2024/03/19 06:23:11;;;;;;;16.15;6.75;;;;;;;;;;5051761;28;20033;-32
2024/03/19 06:25:39;;;;;;;20.83;7.18;;;;;;;;;;5051788;28;20115;-34
2024/03/19 06:28:06;;;;;;;18.05;7.00;;;;;;;;;;5051789;28;20497;-34
2024/03/19 06:30:34;;;;;;;16.50;6.88;;;;;;;;;;5051902;28;20029;-34
2024/03/19 06:33:01;;;;;;;22.75;7.20;;;;;;;;;;5051830;28;20025;-34
2024/03/19 06:35:30;;;;;;;16.90;7.18;;;;;;;;;;5051531;28;20037;-34
2024/03/19 06:37:58;;;;;;;19.98;6.95;;;;;;;;;;5046345;28;20037;-35
2024/03/19 06:40:25;;;;;;;25.05;7.15;;;;;;;;;;5032320;28;20400;-34
2024/03/19 06:42:52;;;;;;;19.60;7.63;;;;;;;;;;5030358;28;20376;-34
2024/03/19 06:45:19;;;;;;;18.58;7.35;;;;;;;;;;5030185;28;20406;-34
2024/03/19 06:47:46;;;;;;;18.48;7.00;;;;;;;;;;5031754;28;20534;-34
2024/03/19 06:50:19;;;;;;;19.05;6.60;;;;;;;;;;5031641;28;20560;-34
2024/03/19 06:52:46;;;;;;;16.40;7.13;;;;;;;;;;5031779;28;20025;-34
2024/03/19 06:55:13;;;;;;;19.23;7.45;;;;;;;;;;5031358;28;20045;-34
2024/03/19 06:57:42;;;;;;;16.15;7.20;;;;;;;;;;5031496;28;20026;-34
2024/03/19 07:00:19;;;;;;;19.13;6.80;;;;;;;;;;5031512;28;20102;-34
2024/03/19 07:02:49;;;;;;;20.70;7.95;;;;;;;;;;5031601;28;20018;-34
2024/03/19 07:05:16;;;;;;;14.95;7.15;;;;;;;;;;5031400;28;20019;-34
2024/03/19 07:07:44;;;;;;;24.23;7.68;;;;;;;;;;5031390;28;20037;-34
2024/03/19 07:10:12;;;;;;;22.00;7.95;;;;;;;;;;5031212;28;20033;-34
2024/03/19 07:12:39;;;;;;;19.98;8.27;;;;;;;;;;5031494;28;20033;-34
2024/03/19 07:15:10;;;;;;;18.02;7.55;;;;;;;;;;5031357;28;20022;-34
2024/03/19 07:17:40;;;;;;;19.02;7.97;;;;;;;;;;5034895;28;20022;-34
2024/03/19 07:20:12;;;;;;;17.42;8.38;;;;;;;;;;5035472;28;20021;-34
2024/03/19 07:22:42;;;;;;;18.00;7.63;;;;;;;;;;5035054;28;20523;-34
2024/03/19 07:25:10;;;;;;;20.30;8.27;;;;;;;;;;5035334;28;20129;-34
2024/03/19 07:27:39;;;;;;;19.35;8.52;;;;;;;;;;5035266;28;20022;-34
2024/03/19 07:30:08;;;;;;;21.45;9.60;;;;;;;;;;5034985;28;20065;-34
2024/03/19 07:32:35;;;;;;;20.95;8.70;;;;;;;;;;5035163;28;20034;-34
2024/03/19 07:35:03;;;;;;;24.45;9.45;;;;;;;;;;5035108;28;20045;-34
2024/03/19 07:37:30;;;;;;;20.02;9.05;;;;;;;;;;5035130;28;20021;-34
2024/03/19 07:39:57;;;;;;;19.38;9.23;;;;;;;;;;5035346;28;20115;-34
2024/03/19 07:42:24;;;;;;;20.02;9.35;;;;;;;;;;5034733;28;20041;-34
2024/03/19 07:44:52;;;;;;;24.40;10.15;;;;;;;;;;5034927;28;20049;-34
2024/03/19 07:47:19;;;;;;;24.95;9.93;;;;;;;;;;5034913;28;20129;-34
2024/03/19 07:49:49;;;;;;;21.15;9.38;;;;;;;;;;5034921;28;20026;-34
2024/03/19 07:52:16;;;;;;;22.17;9.90;;;;;;;;;;5034837;28;20127;-34
2024/03/19 07:54:43;;;;;;;23.73;11.07;;;;;;;;;;5034571;28;20115;-34
2024/03/19 07:57:10;;;;;;;20.50;10.50;;;;;;;;;;5034766;28;20072;-32
2024/03/19 07:59:37;;;;;;;19.15;9.35;;;;;;;;;;5034786;28;20021;-32
2024/03/19 08:02:04;;;;;;;21.65;9.15;;;;;;;;;;5034627;28;20018;-32
2024/03/19 08:04:33;;;;;;;23.20;9.43;;;;;;;;;;5034526;28;20120;-32
2024/03/19 08:07:01;;;;;;;22.05;9.60;;;;;;;;;;5034574;28;20440;-32
2024/03/19 08:09:28;;;;;;;18.65;9.63;;;;;;;;;;5034505;28;20384;-32
2024/03/19 08:11:55;;;;;;;18.35;8.48;;;;;;;;;;5034587;28;20037;-32
2024/03/19 08:14:22;;;;;;;17.92;9.40;;;;;;;;;;5034400;28;20491;-32
2024/03/19 08:16:49;;;;;;;21.50;9.18;;;;;;;;;;5034483;28;20079;-32
2024/03/19 08:19:16;;;;;;;18.50;9.55;;;;;;;;;;5034376;28;20104;-32
2024/03/19 08:21:43;;;;;;;22.13;9.40;;;;;;;;;;5034352;28;20025;-32
2024/03/19 08:24:10;;;;;;;22.42;8.95;;;;;;;;;;5034219;28;20017;-32
2024/03/19 08:26:37;;;;;;;20.38;9.68;;;;;;;;;;5033662;28;20025;-32
2024/03/19 08:29:04;;;;;;;16.50;8.85;;;;;;;;;;5026567;28;20490;-32
2024/03/19 08:31:31;;;;;;;17.17;8.98;;;;;;;;;;4996618;28;20034;-32
2024/03/19 08:33:58;;;;;;;19.70;9.23;;;;;;;;;;5014293;28;20030;-32
2024/03/19 08:36:25;;;;;;;19.73;8.65;;;;;;;;;;5014209;28;20097;-32
2024/03/19 08:38:52;;;;;;;16.35;8.32;;;;;;;;;;5014257;28;20432;-32
2024/03/19 08:41:19;;;;;;;22.38;8.57;;;;;;;;;;5014179;28;20037;-32
2024/03/19 08:43:50;;;;;;;21.05;9.02;;;;;;;;;;5014115;28;20025;-32
2024/03/19 08:46:20;;;;;;;21.27;9.10;;;;;;;;;;5013840;28;20018;-32
2024/03/19 08:48:48;;;;;;;19.48;8.95;;;;;;;;;;5013958;28;20060;-32
2024/03/19 08:51:15;;;;;;;19.65;8.27;;;;;;;;;;5014067;28;20030;-32
2024/03/19 08:53:43;;;;;;;17.17;7.80;;;;;;;;;;5013729;28;20033;-32
2024/03/19 08:56:10;;;;;;;20.00;8.45;;;;;;;;;;5012372;28;20381;-32
2024/03/19 08:58:37;;;;;;;16.48;8.13;;;;;;;;;;5013667;28;20029;-32
2024/03/19 09:01:05;;;;;;;15.35;7.88;;;;;;;;;;5016359;28;20033;-33
2024/03/19 09:03:32;;;;;;;18.02;8.48;;;;;;;;;;5013830;28;20029;-33
2024/03/19 09:06:03;;;;;;;14.60;8.30;;;;;;;;;;5013724;28;20057;-34
2024/03/19 09:08:36;;;;;;;18.23;7.95;;;;;;;;;;5012157;28;20436;-34
2024/03/19 09:11:07;;;;;;;15.55;8.05;;;;;;;;;;5013429;28;20041;-33
2024/03/19 09:13:34;;;;;;;15.63;7.55;;;;;;;;;;5033303;28;20403;-31
2024/03/19 09:16:01;;;;;;;13.57;7.22;;;;;;;;;;5033422;28;20488;-30
2024/03/19 09:18:28;;;;;;;16.65;7.22;;;;;;;;;;5031750;28;20057;-30
2024/03/19 09:20:55;;;;;;;16.88;7.65;;;;;;;;;;5033159;28;20029;-30
2024/03/19 09:23:25;;;;;;;18.40;7.30;;;;;;;;;;5026679;28;20029;-33
2024/03/19 09:25:53;;;;;;;18.30;7.25;;;;;;;;;;5021404;28;20037;-31
2024/03/19 09:28:20;;;;;;;14.90;7.22;;;;;;;;;;5020475;28;20558;-33
2024/03/19 09:30:47;;;;;;;20.63;7.32;;;;;;;;;;5020486;28;20144;-32
2024/03/19 09:33:15;;;;;;;15.98;7.10;;;;;;;;;;5022928;28;20104;-33
2024/03/19 09:35:42;;;;;;;16.13;6.95;;;;;;;;;;5021733;28;20544;-33
2024/03/19 09:38:09;;;;;;;15.15;6.80;;;;;;;;;;5021362;28;20025;-33
2024/03/19 09:40:36;;;;;;;11.30;5.82;;;;;;;;;;5022828;28;20387;-34
2024/03/19 09:43:04;;;;;;;13.45;7.00;;;;;;;;;;5021792;28;20049;-33
2024/03/19 09:45:32;;;;;;;11.38;6.28;;;;;;;;;;5021593;28;20451;-33
2024/03/19 09:47:59;;;;;;;11.95;6.38;;;;;;;;;;5026812;28;20071;-33
2024/03/19 09:50:26;;;;;;;14.27;6.88;;;;;;;;;;5032122;28;20033;-33
2024/03/19 09:52:57;;;;;;;11.75;6.15;;;;;;;;;;5032395;28;20039;-34
2024/03/19 09:55:26;;;;;;;12.40;6.00;;;;;;;;;;5032062;28;20095;-33
2024/03/19 09:57:55;;;;;;;12.90;6.10;;;;;;;;;;5032386;28;20068;-33
2024/03/19 10:00:28;;;;;;;13.88;5.65;;;;;;;;;;5032147;28;20029;-33
2024/03/19 10:02:56;;;;;;;12.73;5.43;;;;;;;;;;5012656;28;20018;-33
2024/03/19 10:05:23;;;;;;;10.95;5.80;;;;;;;;;;5012685;28;20032;-33
2024/03/19 10:10:54;;;;;;;12.90;5.03;;;;;;;;;;5033918;28;20064;-33
2024/03/19 10:16:24;;;;;;;13.13;5.45;;;;;;;;;;5032845;28;20040;-32
2024/03/19 10:18:51;;;;;;;10.93;4.72;;;;;;;;;;5032640;28;20040;-33
2024/03/19 10:21:18;;;;;;;15.05;4.72;;;;;;;;;;5032322;28;20029;-33
2024/03/19 10:23:46;;;;;;;14.23;5.72;;;;;;;;;;5040386;28;20025;-33
2024/03/19 10:26:13;;;;;;;11.40;4.85;;;;;;;;;;5019911;28;20034;-33
2024/03/19 10:28:40;;;;;;;12.77;4.72;;;;;;;;;;5027407;28;20037;-32
2024/03/19 10:31:08;;;;;;;15.85;5.22;;;;;;;;;;5039286;28;20021;-33
2024/03/19 10:33:35;;;;;;;10.95;4.18;;;;;;;;;;5040715;28;20033;-34
2024/03/19 10:36:03;;;;;;;11.68;4.85;;;;;;;;;;5037028;28;20067;-33
2024/03/19 10:38:30;;;;;;;10.43;4.18;;;;;;;;;;5043109;28;20541;-33
2024/03/19 10:40:57;;;;;;;10.35;3.72;;;;;;;;;;5031885;28;20075;-33
2024/03/19 10:43:26;;;;;;;9.35;4.00;;;;;;;;;;5031818;28;20029;-33
2024/03/19 10:45:53;;;;;;;12.02;4.35;;;;;;;;;;5031984;28;20087;-33
2024/03/19 10:48:20;;;;;;;11.32;3.88;;;;;;;;;;5031668;28;20061;-34
2024/03/19 10:50:49;;;;;;;12.48;4.32;;;;;;;;;;5031548;28;20040;-33
2024/03/19 10:53:20;;;;;;;14.65;4.13;;;;;;;;;;5031583;28;20104;-33
2024/03/19 10:55:54;;;;;;;12.40;3.72;;;;;;;;;;5031475;28;20073;-33
2024/03/19 10:58:24;;;;;;;15.60;3.97;;;;;;;;;;5031506;28;20037;-33
2024/03/19 11:00:53;;;;;;;16.42;3.90;;;;;;;;;;5029814;28;20033;-32
2024/03/19 11:03:20;;;;;;;12.60;3.63;;;;;;;;;;5031434;28;20058;-32
2024/03/19 11:05:48;;;;;;;14.13;4.47;;;;;;;;;;5030032;28;20083;-33
2024/03/19 11:08:15;;;;;;;12.57;4.32;;;;;;;;;;5030936;28;20033;-32
2024/03/19 11:10:42;;;;;;;12.35;4.40;;;;;;;;;;5031108;28;20025;-33
2024/03/19 11:13:10;;;;;;;17.80;4.50;;;;;;;;;;5031265;28;20029;-33
2024/03/19 11:15:38;;;;;;;16.38;3.90;;;;;;;;;;5031340;28;20029;-32
2024/03/19 11:18:27;;;;;;;17.30;4.35;;;;;;;;;;5031290;28;20079;-33
2024/03/19 11:20:54;;;;;;;10.55;3.85;;;;;;;;;;5031270;28;20059;-33
2024/03/19 11:23:30;;;;;;;86.90;8.00;;;;;;;;;;5031569;28;20025;-33
2024/03/19 11:26:02;;;;;;;887.63;54.10;;;;;;;;;;5028682;28;20026;-33
2024/03/19 11:28:34;;;;;;;113.72;7.57;;;;;;;;;;5030111;28;20483;-36
2024/03/19 11:31:05;;;;;;;135.43;9.32;;;;;;;;;;5029425;28;20502;-37
2024/03/19 11:33:38;;;;;;;73.30;6.47;;;;;;;;;;5031205;28;20087;-36
2024/03/19 11:36:05;;;;;;;51.78;5.53;;;;;;;;;;5031159;28;20501;-37
2024/03/19 11:38:32;;;;;;;42.15;5.10;;;;;;;;;;5031010;28;20361;-37
2024/03/19 11:41:00;;;;;;;236.23;21.70;;;;;;;;;;5029550;28;20383;-37
2024/03/19 11:43:27;;;;;;;218.15;22.50;;;;;;;;;;5030833;28;20092;-38
2024/03/19 11:45:54;;;;;;;181.85;19.58;;;;;;;;;;5031046;28;20028;-38
2024/03/19 11:48:22;;;;;;;100.30;11.05;;;;;;;;;;5030969;28;20034;-39
2024/03/19 11:50:59;;;;;;;99.15;14.05;;;;;;;;;;5030923;28;20049;-40
2024/03/19 11:53:27;;;;;;;110.20;12.65;;;;;;;;;;5030033;28;20025;-38
2024/03/19 11:55:54;;;;;;;131.30;12.88;;;;;;;;;;5046135;28;20087;-43
2024/03/19 11:58:27;;;;;;;83.85;10.48;;;;;;;;;;5048769;28;20104;-38
2024/03/19 12:00:55;;;;;;;89.55;10.65;;;;;;;;;;5050746;28;20075;-37
2024/03/19 12:03:22;;;;;;;104.45;10.02;;;;;;;;;;5052180;28;20078;-37
2024/03/19 12:05:52;;;;;;;67.97;8.80;;;;;;;;;;5054268;28;20033;-37
2024/03/19 12:08:20;;;;;;;62.63;8.80;;;;;;;;;;5054339;28;20032;-38
2024/03/19 12:10:48;;;;;;;70.22;8.65;;;;;;;;;;5054263;28;20033;-37
2024/03/19 12:13:15;;;;;;;55.75;7.38;;;;;;;;;;5052396;28;20025;-37
2024/03/19 12:15:42;;;;;;;61.83;7.75;;;;;;;;;;5053627;28;20036;-37
2024/03/19 12:18:10;;;;;;;70.22;7.97;;;;;;;;;;5054008;28;20021;-37
2024/03/19 12:20:38;;;;;;;57.70;8.02;;;;;;;;;;5054052;28;20100;-37
2024/03/19 12:23:05;;;;;;;54.60;8.27;;;;;;;;;;5053211;28;20394;-37
2024/03/19 12:25:33;;;;;;;73.47;8.93;;;;;;;;;;5052716;28;20029;-38
2024/03/19 12:28:00;;;;;;;75.63;9.15;;;;;;;;;;5054216;28;20059;-37
2024/03/19 12:30:27;;;;;;;52.15;8.10;;;;;;;;;;5053993;28;20025;-37
2024/03/19 12:35:35;;;;;;;50.10;7.43;;;;;;;;;;5054369;28;20119;-37
2024/03/19 12:38:02;;;;;;;47.15;7.15;;;;;;;;;;5054012;28;20064;-37
2024/03/19 12:40:29;;;;;;;49.45;7.50;;;;;;;;;;5053739;28;20418;-37
2024/03/19 12:42:57;;;;;;;29.50;6.43;;;;;;;;;;5053749;28;20486;-37
2024/03/19 12:45:24;;;;;;;26.70;6.03;;;;;;;;;;5053920;28;20033;-37
2024/03/19 12:47:51;;;;;;;22.58;5.53;;;;;;;;;;5053805;28;20021;-38
2024/03/19 12:50:19;;;;;;;58.65;7.35;;;;;;;;;;5053614;28;20029;-37
2024/03/19 12:52:46;;;;;;;52.83;6.95;;;;;;;;;;5053566;28;20028;-37
2024/03/19 12:55:15;;;;;;;49.95;8.05;;;;;;;;;;5041334;28;20057;-37
2024/03/19 12:57:42;;;;;;;53.58;7.43;;;;;;;;;;5033594;28;20468;-37
2024/03/19 13:00:18;;;;;;;45.55;7.20;;;;;;;;;;5033615;28;20025;-37
2024/03/19 13:02:46;;;;;;;40.30;7.07;;;;;;;;;;5033556;28;20026;-37
2024/03/19 13:05:15;;;;;;;34.72;7.60;;;;;;;;;;5033405;28;20668;-37
2024/03/19 13:07:42;;;;;;;28.55;6.30;;;;;;;;;;5033448;28;20056;-37
2024/03/19 13:10:09;;;;;;;29.60;6.25;;;;;;;;;;5033508;28;20030;-37
2024/03/19 13:12:36;;;;;;;41.72;7.38;;;;;;;;;;5033209;28;20112;-37
2024/03/19 13:15:03;;;;;;;38.00;7.15;;;;;;;;;;5033302;28;20100;-37
2024/03/19 13:17:30;;;;;;;33.95;6.80;;;;;;;;;;5033263;28;20018;-37
2024/03/19 13:19:57;;;;;;;33.78;6.55;;;;;;;;;;5033303;28;20032;-37
2024/03/19 13:22:25;;;;;;;19.40;5.72;;;;;;;;;;5033151;28;20048;-37
2024/03/19 13:24:52;;;;;;;24.13;6.45;;;;;;;;;;5033214;28;20167;-37
2024/03/19 13:27:19;;;;;;;30.08;8.60;;;;;;;;;;5033022;28;20036;-37
2024/03/19 13:29:48;;;;;;;41.90;10.98;;;;;;;;;;5032128;28;20079;-37
2024/03/19 13:32:16;;;;;;;38.78;9.85;;;;;;;;;;5032225;28;20479;-36
2024/03/19 13:34:44;;;;;;;33.35;10.77;;;;;;;;;;5032022;28;20109;-37
2024/03/19 13:37:12;;;;;;;32.42;11.07;;;;;;;;;;5032141;28;20021;-37
2024/03/19 13:39:39;;;;;;;28.58;9.10;;;;;;;;;;5031112;28;20037;-37
2024/03/19 13:42:06;;;;;;;26.73;9.40;;;;;;;;;;5030596;28;20100;-37
2024/03/19 13:44:33;;;;;;;34.92;9.93;;;;;;;;;;5031266;28;20030;-37
2024/03/19 13:47:00;;;;;;;41.63;9.75;;;;;;;;;;5030812;28;20025;-38
2024/03/19 13:49:28;;;;;;;35.90;9.55;;;;;;;;;;5030904;28;20428;-37
2024/03/19 13:51:59;;;;;;;36.58;10.05;;;;;;;;;;5030913;28;20025;-37
2024/03/19 13:54:28;;;;;;;40.35;9.63;;;;;;;;;;5031816;28;20033;-37
2024/03/19 13:56:55;;;;;;;29.10;9.82;;;;;;;;;;5031136;28;20033;-37
2024/03/19 13:59:23;;;;;;;40.47;12.18;;;;;;;;;;5031394;28;20391;-37
2024/03/19 14:01:51;;;;;;;37.72;11.63;;;;;;;;;;5031920;28;20123;-37
2024/03/19 14:04:19;;;;;;;34.53;10.43;;;;;;;;;;5029207;28;20065;-37
2024/03/19 14:06:46;;;;;;;24.45;10.35;;;;;;;;;;5031730;28;20032;-37
2024/03/19 14:09:13;;;;;;;27.38;9.55;;;;;;;;;;5031560;28;20083;-37
2024/03/19 14:11:40;;;;;;;14.57;8.48;;;;;;;;;;5031676;28;20029;-37
2024/03/19 14:14:07;;;;;;;21.98;7.93;;;;;;;;;;5031109;28;20547;-37
2024/03/19 14:16:37;;;;;;;12.35;7.15;;;;;;;;;;5028291;28;20056;-37
2024/03/19 14:19:04;;;;;;;20.70;7.78;;;;;;;;;;5031544;28;20025;-37
2024/03/19 14:21:31;;;;;;;19.92;7.65;;;;;;;;;;5031392;28;20036;-37
2024/03/19 14:23:58;;;;;;;18.75;7.47;;;;;;;;;;5028331;28;20026;-37
2024/03/19 14:26:25;;;;;;;15.48;5.95;;;;;;;;;;5029510;28;20048;-37
2024/03/19 14:28:52;;;;;;;15.45;6.00;;;;;;;;;;5030702;28;20041;-37
2024/03/19 14:31:19;;;;;;;26.23;5.72;;;;;;;;;;5030889;28;20057;-37
2024/03/19 14:33:46;;;;;;;20.42;6.47;;;;;;;;;;5030815;28;20041;-38
2024/03/19 14:36:13;;;;;;;21.05;6.50;;;;;;;;;;5031012;28;20414;-37
2024/03/19 14:38:41;;;;;;;23.48;8.55;;;;;;;;;;5013435;28;20440;-37